Página principal
METAR-TAF:

METAR-TAF

Aeroportos :

Almagro, Espanha

latitude: 38-57-11N, longitude: 3-44-29W, altura: 629 m

Observação actual do tempo

O boletim foi feito há 7 horas e 53 minutos, às 21:00 UTC
Vento 3 kt de nor-nordeste, variando entre oes-noroeste e este
Temperatura 3°C
Humidade 56%
Pressão 1009 hPa
Visibilidade 10 km ou mais
Poucas nuvensa uma altura de 4500 ft

METAR: LEAO 212100Z 02003KT 290V080 9999 FEW045 03/M05 Q1009

Hora: 05:53 (04:53 UTC)

Previsão

O boletim foi feito há 11 horas e 53 minutos, às 17:00 UTC
Previsão válida de 21 às 18 UTC a 22 às 03 UTC
Vento 11 kt de nor-nordeste
Visibilidade 10 km ou mais
Nuvens dispersasa uma altura de 4500 ft

TAF: LEAO 211700Z 2118/2203 02011KT 9999 SCT045

Observações e previsões do tempo de mais de 4000 aeroportos (mensagens METAR e TAF).

As estações disponíveis são os pontos amarelos e vermelhos sobre o mapa.

Mova o rato sobre o mapa para ver o nome da estação.

Depois clique no ponto para visualizar as observações e previsões meteorológicas.

Para alterar o mapa : clique nos botões verdes com uma cruz preta para aumentar o zoom; no botão verde com uma pitada de zoom; ou nas setas verdes para mapas adjacentes.


METAR-TAF: